Time;durP1;ratioP1;P1;durP2;ratioP2;P2;SDS_P1;SDS_P2;PMS_P1;PMS_P2;Temp;Humidity;BMP_temperature;BMP_pressure;BME280_temperature;BME280_humidity;BME280_pressure;Samples;Min_cycle;Max_cycle;Signal;HPM_P1;HPM_P2
2022/03/16 00:00:19;;;;;;;13.43;4.70;;;10.60;91.60;;;;;;5050217;28;20229;-64
2022/03/16 00:02:46;;;;;;;15.50;9.95;;;10.60;91.30;;;;;;5050871;28;20187;-64
2022/03/16 00:05:15;;;;;;;13.13;5.95;;;10.70;91.20;;;;;;5050075;28;20599;-65
2022/03/16 00:07:43;;;;;;;12.95;4.25;;;10.70;91.20;;;;;;5050370;28;20518;-64
2022/03/16 00:10:11;;;;;;;11.10;4.30;;;10.70;91.10;;;;;;5051458;28;20657;-64
2022/03/16 00:12:39;;;;;;;11.48;4.88;;;10.70;91.00;;;;;;5051981;28;20191;-64
2022/03/16 00:15:07;;;;;;;12.30;4.13;;;10.80;91.10;;;;;;5052704;28;20187;-64
2022/03/16 00:17:34;;;;;;;10.93;4.47;;;10.80;90.90;;;;;;5074838;28;20194;-64
2022/03/16 00:20:01;;;;;;;13.57;6.45;;;10.80;90.70;;;;;;5073931;28;20217;-64
2022/03/16 00:22:30;;;;;;;23.75;8.10;;;10.80;90.80;;;;;;5075970;28;20212;-64
2022/03/16 00:24:57;;;;;;;16.27;8.55;;;10.80;90.40;;;;;;5070280;28;20186;-65
2022/03/16 00:27:24;;;;;;;14.82;6.03;;;10.80;90.30;;;;;;5055718;28;20198;-64
2022/03/16 00:29:51;;;;;;;14.52;4.95;;;10.80;90.00;;;;;;5059427;28;20187;-64
2022/03/16 00:32:18;;;;;;;10.05;4.60;;;10.80;90.00;;;;;;5075623;28;20279;-64
2022/03/16 00:34:45;;;;;;;13.43;5.75;;;10.90;90.00;;;;;;5074154;28;20194;-65
2022/03/16 00:37:12;;;;;;;12.40;5.60;;;10.90;89.80;;;;;;5075941;28;20194;-64
2022/03/16 00:39:40;;;;;;;14.32;5.10;;;10.90;89.80;;;;;;5073915;28;20213;-64
2022/03/16 00:42:08;;;;;;;14.80;5.50;;;10.90;89.90;;;;;;5055674;28;20200;-64
2022/03/16 00:44:35;;;;;;;12.90;6.53;;;10.90;89.70;;;;;;5055224;28;20198;-65
2022/03/16 00:47:03;;;;;;;17.25;5.35;;;10.90;89.70;;;;;;5048647;28;20277;-64
2022/03/16 00:49:30;;;;;;;14.35;5.90;;;11.00;90.00;;;;;;5055664;28;20191;-64
2022/03/16 00:51:59;;;;;;;23.10;7.60;;;10.90;90.00;;;;;;5073912;28;20190;-64
2022/03/16 00:54:26;;;;;;;15.65;6.10;;;10.90;90.00;;;;;;5075405;28;20250;-64
2022/03/16 00:56:54;;;;;;;16.67;7.95;;;11.00;90.00;;;;;;5056923;28;20198;-64
2022/03/16 00:59:21;;;;;;;11.85;6.25;;;11.00;90.10;;;;;;5055149;28;20221;-64
2022/03/16 01:01:48;;;;;;;14.25;6.38;;;11.00;90.10;;;;;;5071914;28;20190;-65
2022/03/16 01:04:15;;;;;;;14.00;5.65;;;11.00;90.10;;;;;;5075459;28;20200;-65
2022/03/16 01:06:42;;;;;;;14.25;5.85;;;11.00;90.00;;;;;;5059303;28;20190;-66
2022/03/16 01:09:09;;;;;;;11.38;5.03;;;11.00;89.60;;;;;;5055349;28;20202;-64
2022/03/16 01:11:37;;;;;;;12.25;5.57;;;11.00;90.00;;;;;;5068644;28;20671;-68
2022/03/16 01:14:06;;;;;;;10.18;3.92;;;11.00;90.00;;;;;;5074998;28;20634;-65
2022/03/16 01:16:35;;;;;;;16.40;5.63;;;11.00;89.50;;;;;;5055391;28;20187;-64
2022/03/16 01:19:02;;;;;;;6.85;4.20;;;10.90;89.10;;;;;;5054949;28;20213;-64
2022/03/16 01:21:29;;;;;;;9.70;3.63;;;10.90;89.20;;;;;;5072982;28;20193;-64
2022/03/16 01:23:56;;;;;;;6.97;3.67;;;10.90;89.40;;;;;;5074884;28;20194;-64
2022/03/16 01:26:23;;;;;;;12.73;4.00;;;10.90;90.00;;;;;;5056809;28;20195;-64
2022/03/16 01:28:50;;;;;;;15.43;4.18;;;10.90;89.00;;;;;;5054689;28;20198;-65
2022/03/16 01:31:19;;;;;;;9.52;3.78;;;11.00;88.90;;;;;;5069953;28;20663;-64
2022/03/16 01:33:46;;;;;;;9.35;4.57;;;10.90;88.70;;;;;;5074819;28;20554;-65
2022/03/16 01:36:13;;;;;;;9.82;4.63;;;10.90;88.80;;;;;;5059373;28;20240;-64
2022/03/16 01:38:40;;;;;;;12.77;4.03;;;10.90;89.20;;;;;;5063188;28;20214;-64
2022/03/16 01:41:07;;;;;;;11.52;4.72;;;10.90;89.10;;;;;;5073859;28;20568;-64
2022/03/16 01:43:34;;;;;;;9.30;4.03;;;10.90;89.20;;;;;;5066708;28;20186;-65
2022/03/16 01:46:01;;;;;;;7.25;4.03;;;10.90;89.30;;;;;;5054444;28;20794;-64
2022/03/16 01:48:30;;;;;;;11.07;5.03;;;10.90;89.40;;;;;;5070895;28;20189;-64
2022/03/16 01:50:57;;;;;;;14.85;5.35;;;10.80;89.30;;;;;;5074345;28;20189;-64
2022/03/16 01:53:25;;;;;;;14.48;4.53;;;10.80;89.70;;;;;;5058408;28;20260;-64
2022/03/16 01:55:52;;;;;;;8.65;4.32;;;10.80;89.40;;;;;;5054522;28;20214;-65
2022/03/16 01:58:20;;;;;;;7.03;3.80;;;10.80;89.60;;;;;;5068466;28;20194;-66
2022/03/16 02:00:47;;;;;;;9.68;4.80;;;10.80;89.50;;;;;;5074058;28;20224;-64
2022/03/16 02:03:14;;;;;;;8.15;4.40;;;10.80;89.60;;;;;;5060441;28;20189;-65
2022/03/16 02:05:42;;;;;;;12.23;5.18;;;10.80;89.70;;;;;;5058358;28;20186;-64
2022/03/16 02:08:12;;;;;;;9.57;5.03;;;10.80;89.70;;;;;;5073758;28;20201;-64
2022/03/16 02:10:41;;;;;;;11.85;4.70;;;10.80;89.60;;;;;;5070281;28;20179;-64
2022/03/16 02:13:10;;;;;;;9.45;4.82;;;10.80;89.50;;;;;;5054146;28;20199;-64
2022/03/16 02:15:38;;;;;;;16.67;4.68;;;10.70;89.50;;;;;;5056213;28;20187;-64
2022/03/16 02:18:05;;;;;;;12.25;4.93;;;10.80;89.60;;;;;;5073838;28;20608;-64
2022/03/16 02:20:32;;;;;;;9.63;5.78;;;10.80;89.40;;;;;;5071832;28;20229;-64
2022/03/16 02:23:02;;;;;;;9.73;4.63;;;10.80;89.40;;;;;;5053663;28;20694;-64
2022/03/16 02:25:31;;;;;;;6.57;4.20;;;10.70;89.20;;;;;;5053667;28;20676;-64
2022/03/16 02:28:00;;;;;;;8.32;4.80;;;10.70;89.20;;;;;;5073771;28;20197;-65
2022/03/16 02:30:29;;;;;;;15.07;4.85;;;10.70;89.00;;;;;;5073228;28;20197;-67
2022/03/16 02:32:56;;;;;;;15.57;5.10;;;10.70;89.10;;;;;;5033328;28;20227;-64
2022/03/16 02:35:23;;;;;;;13.13;5.15;;;10.70;89.10;;;;;;5033673;28;20194;-64
2022/03/16 02:37:50;;;;;;;23.50;6.95;;;10.70;89.30;;;;;;5070636;28;20182;-64
2022/03/16 02:40:22;;;;;;;6.68;4.85;;;10.70;89.40;;;;;;5073013;28;20218;-65
2022/03/16 02:42:49;;;;;;;8.55;5.20;;;10.60;89.20;;;;;;5054650;28;20518;-64
2022/03/16 02:45:16;;;;;;;10.88;5.35;;;10.70;89.10;;;;;;5053161;28;20252;-65
2022/03/16 02:47:44;;;;;;;7.70;4.70;;;10.60;89.00;;;;;;5069503;28;20616;-65
2022/03/16 02:50:12;;;;;;;6.93;4.18;;;10.60;89.00;;;;;;5073202;28;20656;-64
2022/03/16 02:52:39;;;;;;;11.40;5.28;;;10.60;89.00;;;;;;5057098;28;20225;-64
2022/03/16 02:55:07;;;;;;;9.20;5.95;;;10.60;89.00;;;;;;5053356;28;20194;-64
2022/03/16 02:57:36;;;;;;;8.88;4.78;;;10.70;89.00;;;;;;5070334;28;20238;-65
2022/03/16 03:00:05;;;;;;;10.43;5.95;;;10.60;88.90;;;;;;5070533;28;20226;-65
2022/03/16 03:02:32;;;;;;;8.00;5.78;;;10.70;88.90;;;;;;5071958;28;20194;-64
2022/03/16 03:04:59;;;;;;;8.38;5.88;;;10.70;88.90;;;;;;5056271;28;20253;-64
2022/03/16 03:07:26;;;;;;;12.73;5.72;;;10.70;88.80;;;;;;5060082;28;20197;-64
2022/03/16 03:09:53;;;;;;;9.60;6.20;;;10.70;88.80;;;;;;5072656;28;20193;-65
2022/03/16 03:12:20;;;;;;;11.30;6.20;;;10.70;88.60;;;;;;5032675;28;20191;-64
2022/03/16 03:14:48;;;;;;;10.45;5.55;;;10.60;88.50;;;;;;5033100;28;20583;-64
2022/03/16 03:17:15;;;;;;;12.98;5.13;;;10.60;88.80;;;;;;5070598;28;20597;-64
2022/03/16 03:19:43;;;;;;;11.23;5.63;;;10.60;88.90;;;;;;5072666;28;20213;-65
2022/03/16 03:22:10;;;;;;;10.43;5.30;;;10.60;89.10;;;;;;5056164;28;20187;-64
2022/03/16 03:24:39;;;;;;;9.98;5.63;;;10.60;89.00;;;;;;5071762;28;20202;-65
2022/03/16 03:27:06;;;;;;;9.35;5.28;;;10.60;88.60;;;;;;5049236;28;20190;-65
2022/03/16 03:29:33;;;;;;;7.85;5.95;;;10.60;88.50;;;;;;5052822;28;20209;-64
2022/03/16 03:32:02;;;;;;;10.52;5.03;;;10.60;88.80;;;;;;5064528;28;20248;-64
2022/03/16 03:34:29;;;;;;;8.35;5.30;;;10.60;88.60;;;;;;5052475;28;20202;-64
2022/03/16 03:36:56;;;;;;;10.10;5.85;;;10.60;88.80;;;;;;5059141;28;20193;-64
2022/03/16 03:39:23;;;;;;;11.63;6.50;;;10.50;89.20;;;;;;5072355;28;20620;-64
2022/03/16 03:41:50;;;;;;;13.10;6.28;;;10.50;89.20;;;;;;5066250;28;20190;-65
2022/03/16 03:44:16;;;;;;;11.10;7.07;;;10.50;89.40;;;;;;5051885;28;20194;-69
2022/03/16 03:46:43;;;;;;;27.50;6.88;;;10.50;89.50;;;;;;5056172;28;20274;-64
2022/03/16 03:49:12;;;;;;;11.05;6.43;;;10.50;89.80;;;;;;5071974;28;20216;-64
2022/03/16 03:51:39;;;;;;;16.17;5.75;;;10.40;89.80;;;;;;5056966;28;20190;-64
2022/03/16 03:54:06;;;;;;;22.65;10.45;;;10.40;89.70;;;;;;5051960;28;20194;-64
2022/03/16 03:56:33;;;;;;;16.95;8.45;;;10.40;89.70;;;;;;5064888;28;20243;-66
2022/03/16 03:59:00;;;;;;;18.92;7.88;;;10.30;90.10;;;;;;5071874;28;20205;-66
2022/03/16 04:01:27;;;;;;;15.75;8.27;;;10.30;90.10;;;;;;5059759;28;20229;-65
2022/03/16 04:03:54;;;;;;;14.15;8.45;;;10.30;90.20;;;;;;5052424;28;20186;-65
2022/03/16 04:06:23;;;;;;;14.30;8.23;;;10.30;90.30;;;;;;5062313;28;20196;-64
2022/03/16 04:08:50;;;;;;;9.93;6.05;;;10.30;90.30;;;;;;5071956;28;20189;-65
2022/03/16 04:11:17;;;;;;;9.55;6.63;;;10.30;90.40;;;;;;5032494;28;20546;-65
2022/03/16 04:13:44;;;;;;;10.43;6.40;;;10.30;90.30;;;;;;5032362;28;20225;-64
2022/03/16 04:16:11;;;;;;;13.30;5.57;;;10.30;90.30;;;;;;5069863;28;20726;-64
2022/03/16 04:18:38;;;;;;;15.23;6.47;;;10.30;90.30;;;;;;5072656;28;20201;-64
2022/03/16 04:21:05;;;;;;;9.35;6.35;;;10.30;90.30;;;;;;5054485;28;20229;-64
2022/03/16 04:23:34;;;;;;;6.93;5.65;;;10.30;90.50;;;;;;5052243;28;20194;-64
2022/03/16 04:26:01;;;;;;;9.52;6.15;;;10.30;90.60;;;;;;5067572;28;20186;-65
2022/03/16 04:28:28;;;;;;;12.80;5.55;;;10.30;90.60;;;;;;5072254;28;20189;-65
2022/03/16 04:30:55;;;;;;;8.75;5.97;;;10.30;90.60;;;;;;5056597;28;20194;-64
2022/03/16 04:33:22;;;;;;;9.75;5.85;;;10.30;90.50;;;;;;5051762;28;20218;-64
2022/03/16 04:35:49;;;;;;;15.18;6.72;;;10.30;90.40;;;;;;5051935;28;20209;-64
2022/03/16 04:38:17;;;;;;;11.02;6.30;;;10.30;90.50;;;;;;5055414;28;20661;-64
2022/03/16 04:40:46;;;;;;;8.63;6.65;;;10.30;90.50;;;;;;5071823;28;20222;-64
2022/03/16 04:43:13;;;;;;;8.40;5.53;;;10.30;90.50;;;;;;5068992;28;20676;-64
2022/03/16 04:45:41;;;;;;;8.52;6.78;;;10.30;90.50;;;;;;5051817;28;20202;-64
2022/03/16 04:48:08;;;;;;;11.68;7.50;;;10.30;90.50;;;;;;5052710;28;20194;-64
2022/03/16 04:50:35;;;;;;;16.17;6.32;;;10.20;90.50;;;;;;5071863;28;20203;-64
2022/03/16 04:53:03;;;;;;;8.75;6.43;;;10.20;90.50;;;;;;5071195;28;20399;-64
2022/03/16 04:55:30;;;;;;;12.15;6.60;;;10.20;90.50;;;;;;5036021;28;20182;-69
2022/03/16 04:58:00;;;;;;;10.55;6.40;;;10.20;90.60;;;;;;5051726;28;20669;-64
2022/03/16 05:00:27;;;;;;;10.50;6.60;;;10.20;90.70;;;;;;5052414;28;20210;-64
2022/03/16 05:02:54;;;;;;;21.20;6.82;;;10.10;90.60;;;;;;5055721;28;20583;-64
2022/03/16 05:05:21;;;;;;;9.35;6.30;;;10.20;90.80;;;;;;5073476;28;20190;-64
2022/03/16 05:07:48;;;;;;;15.63;5.80;;;10.10;90.90;;;;;;5056608;28;20541;-64
2022/03/16 05:10:16;;;;;;;10.38;6.60;;;10.10;91.00;;;;;;5055369;28;20195;-64
2022/03/16 05:12:45;;;;;;;7.20;6.40;;;10.10;91.00;;;;;;5055354;28;20234;-68
2022/03/16 05:15:15;;;;;;;11.93;7.40;;;10.10;91.10;;;;;;5073571;28;20190;-64
2022/03/16 05:17:42;;;;;;;11.10;7.90;;;10.10;91.10;;;;;;5075474;28;20649;-66
2022/03/16 05:20:11;;;;;;;12.25;6.72;;;10.10;91.30;;;;;;5056485;28;20190;-64
2022/03/16 05:22:42;;;;;;;13.35;7.57;;;10.10;91.40;;;;;;5055537;28;20202;-64
2022/03/16 05:25:12;;;;;;;19.42;7.97;;;10.10;91.50;;;;;;5073325;28;20190;-65
2022/03/16 05:30:36;;;;;;;11.07;8.32;;;10.00;91.70;;;;;;5035166;28;20213;-64
2022/03/16 05:33:03;;;;;;;12.05;8.05;;;10.00;91.60;;;;;;5035168;28;20585;-64
2022/03/16 05:35:31;;;;;;;17.50;9.30;;;10.00;91.60;;;;;;5035145;28;20183;-64
2022/03/16 05:38:00;;;;;;;13.43;8.38;;;10.10;91.60;;;;;;5034571;28;20198;-64
2022/03/16 05:40:27;;;;;;;15.48;9.25;;;10.10;91.70;;;;;;5073062;28;20217;-66
2022/03/16 05:42:54;;;;;;;12.00;10.23;;;10.00;91.80;;;;;;5066082;28;20270;-63
2022/03/16 05:45:21;;;;;;;18.48;10.65;;;10.10;91.70;;;;;;5054788;28;20197;-64
2022/03/16 05:47:50;;;;;;;18.35;12.75;;;10.10;91.70;;;;;;5061958;28;20591;-69
2022/03/16 05:50:17;;;;;;;12.10;10.82;;;10.10;91.80;;;;;;5074606;28;20644;-63
2022/03/16 05:52:46;;;;;;;19.35;12.73;;;10.10;91.80;;;;;;5068287;28;20549;-64
2022/03/16 05:55:14;;;;;;;16.25;12.85;;;10.10;91.70;;;;;;5054908;28;20285;-68
2022/03/16 05:57:43;;;;;;;17.35;13.13;;;10.10;91.80;;;;;;5059160;28;20228;-63
2022/03/16 06:00:14;;;;;;;26.13;14.10;;;10.10;91.90;;;;;;5074582;28;21376;-64
2022/03/16 06:02:42;;;;;;;20.90;14.10;;;10.10;91.90;;;;;;5069672;28;20182;-63
2022/03/16 06:05:10;;;;;;;19.02;14.00;;;10.10;91.90;;;;;;5054826;28;20278;-64
2022/03/16 06:07:38;;;;;;;16.75;13.80;;;10.10;92.00;;;;;;5072842;28;20190;-64
2022/03/16 06:10:07;;;;;;;18.77;13.23;;;10.10;92.10;;;;;;5074435;28;20189;-64
2022/03/16 06:12:34;;;;;;;18.33;14.00;;;10.10;92.00;;;;;;5055568;28;20237;-64
2022/03/16 06:15:01;;;;;;;18.15;13.95;;;10.10;92.00;;;;;;5051429;28;20199;-64
2022/03/16 06:17:28;;;;;;;15.25;11.65;;;10.10;92.20;;;;;;5052624;28;20248;-65
2022/03/16 06:19:55;;;;;;;17.58;12.13;;;10.00;92.20;;;;;;5048511;28;20201;-63
2022/03/16 06:22:23;;;;;;;22.45;15.95;;;10.00;92.30;;;;;;5052355;28;20218;-64
2022/03/16 06:24:57;;;;;;;23.27;14.80;;;10.00;92.30;;;;;;5052455;28;20190;-64
2022/03/16 06:27:24;;;;;;;25.98;16.05;;;10.10;92.50;;;;;;5048371;28;20190;-64
2022/03/16 06:29:51;;;;;;;28.30;18.67;;;10.10;92.50;;;;;;5052192;28;20194;-64
2022/03/16 06:32:18;;;;;;;33.10;19.23;;;10.10;92.50;;;;;;5051847;28;20194;-64
2022/03/16 06:34:46;;;;;;;26.67;19.45;;;10.10;92.60;;;;;;5051650;28;20187;-65
2022/03/16 06:37:13;;;;;;;31.70;19.52;;;10.10;92.60;;;;;;5052578;28;20202;-64
2022/03/16 06:39:42;;;;;;;26.75;18.08;;;10.10;92.80;;;;;;5052250;28;20190;-66
2022/03/16 06:42:09;;;;;;;27.92;19.92;;;10.20;92.90;;;;;;5052275;28;20685;-64
2022/03/16 06:44:36;;;;;;;27.95;19.98;;;10.10;93.00;;;;;;5050495;28;20252;-64
2022/03/16 06:47:04;;;;;;;32.40;20.13;;;10.10;93.00;;;;;;5050416;28;20190;-64
2022/03/16 06:49:31;;;;;;;31.45;22.35;;;10.10;93.10;;;;;;5051096;28;20190;-64
2022/03/16 06:51:57;;;;;;;26.77;21.17;;;10.20;93.10;;;;;;5052778;28;20343;-64
2022/03/16 06:54:24;;;;;;;30.38;21.58;;;10.20;93.10;;;;;;5051965;28;20194;-64
2022/03/16 06:56:53;;;;;;;39.92;21.67;;;10.10;93.20;;;;;;5052307;28;20732;-64
2022/03/16 06:59:20;;;;;;;35.25;22.35;;;10.10;93.30;;;;;;5052147;28;20190;-65
2022/03/16 07:01:51;;;;;;;31.77;21.83;;;10.00;93.40;;;;;;5052043;28;20226;-67
2022/03/16 07:04:18;;;;;;;40.20;22.00;;;10.00;93.60;;;;;;5051259;28;20536;-64
2022/03/16 07:06:45;;;;;;;36.63;23.02;;;10.10;93.70;;;;;;5052314;28;20293;-64
2022/03/16 07:09:12;;;;;;;37.45;22.73;;;10.10;93.90;;;;;;5051431;28;20190;-66
2022/03/16 07:11:39;;;;;;;32.67;21.15;;;10.10;93.90;;;;;;5051649;28;20187;-65
2022/03/16 07:16:52;;;;;;;41.33;21.77;;;10.20;94.00;;;;;;5051857;28;20201;-64
2022/03/16 07:19:19;;;;;;;35.30;24.17;;;10.20;94.00;;;;;;5051874;28;20190;-64
2022/03/16 07:21:46;;;;;;;46.00;25.83;;;10.30;94.00;;;;;;5051433;28;20250;-64
2022/03/16 07:24:13;;;;;;;37.22;21.48;;;10.30;94.00;;;;;;5051590;28;20248;-64
2022/03/16 07:26:40;;;;;;;41.58;24.17;;;10.30;94.00;;;;;;5051189;28;20186;-65
2022/03/16 07:29:08;;;;;;;37.92;22.85;;;10.40;93.90;;;;;;5051345;28;20194;-65
2022/03/16 07:31:35;;;;;;;34.53;24.63;;;10.40;93.80;;;;;;5051923;28;20198;-64
2022/03/16 07:34:02;;;;;;;33.72;22.27;;;10.40;93.80;;;;;;5054778;28;20214;-65
2022/03/16 07:36:31;;;;;;;31.77;21.58;;;10.50;93.70;;;;;;5045404;28;20240;-63
2022/03/16 07:38:58;;;;;;;40.78;24.10;;;10.50;93.60;;;;;;5051658;28;20199;-64
2022/03/16 07:41:25;;;;;;;46.47;24.70;;;10.50;93.50;;;;;;5051464;28;20226;-64
2022/03/16 07:43:52;;;;;;;37.50;22.60;;;10.50;93.20;;;;;;5051055;28;20198;-64
2022/03/16 07:46:20;;;;;;;36.85;23.75;;;10.50;93.40;;;;;;5053558;28;20190;-65
2022/03/16 07:48:47;;;;;;;27.40;20.48;;;10.50;93.50;;;;;;5051100;28;20194;-64
2022/03/16 07:51:15;;;;;;;32.15;21.42;;;10.50;93.30;;;;;;5051599;28;20190;-64
2022/03/16 07:53:42;;;;;;;36.00;22.45;;;10.60;93.60;;;;;;5051544;28;20182;-65
2022/03/16 07:56:09;;;;;;;39.28;22.83;;;10.60;93.50;;;;;;5051732;28;20244;-64
2022/03/16 07:58:38;;;;;;;39.25;23.45;;;10.60;93.50;;;;;;5051678;28;20209;-64
2022/03/16 08:01:06;;;;;;;50.20;24.52;;;10.60;93.50;;;;;;5050744;28;20210;-63
2022/03/16 08:03:34;;;;;;;39.58;24.83;;;10.60;93.50;;;;;;5050391;28;20603;-65
2022/03/16 08:06:01;;;;;;;36.58;23.02;;;10.70;93.50;;;;;;5046999;28;20527;-64
2022/03/16 08:08:28;;;;;;;34.92;22.35;;;10.70;93.30;;;;;;5050853;28;20564;-64
2022/03/16 08:10:56;;;;;;;33.28;22.48;;;10.70;93.30;;;;;;5050724;28;20190;-64
2022/03/16 08:13:23;;;;;;;31.83;22.00;;;10.70;93.30;;;;;;5050481;28;20186;-65
2022/03/16 08:15:50;;;;;;;37.92;25.67;;;10.70;93.10;;;;;;5050140;28;20189;-64
2022/03/16 08:18:17;;;;;;;35.00;23.92;;;10.70;92.60;;;;;;5051274;28;20191;-64
2022/03/16 08:20:45;;;;;;;33.90;25.17;;;10.60;92.00;;;;;;5050775;28;20186;-64
2022/03/16 08:23:13;;;;;;;37.90;23.38;;;10.60;91.50;;;;;;5050597;28;20222;-65
2022/03/16 08:25:40;;;;;;;35.47;24.25;;;10.60;91.80;;;;;;5050706;28;20214;-64
2022/03/16 08:28:07;;;;;;;35.85;24.20;;;10.50;91.30;;;;;;5050899;28;20194;-64
2022/03/16 08:30:35;;;;;;;33.20;23.73;;;10.50;91.00;;;;;;5050503;28;20563;-65
2022/03/16 08:33:02;;;;;;;31.17;21.27;;;10.50;90.90;;;;;;5050486;28;20692;-65
2022/03/16 08:35:29;;;;;;;21.33;14.95;;;10.50;90.70;;;;;;5050494;28;20183;-64
2022/03/16 08:37:57;;;;;;;24.30;16.00;;;10.40;90.40;;;;;;5054276;28;20186;-63
2022/03/16 08:40:25;;;;;;;21.77;14.15;;;10.40;90.40;;;;;;5057661;28;20232;-65
2022/03/16 08:42:52;;;;;;;21.33;15.80;;;10.40;90.50;;;;;;5054625;28;20300;-64
2022/03/16 08:45:19;;;;;;;21.52;15.65;;;10.30;90.20;;;;;;5051854;28;20198;-64
2022/03/16 08:47:46;;;;;;;17.15;12.77;;;10.30;90.20;;;;;;5054541;28;20195;-65
2022/03/16 08:50:14;;;;;;;20.65;14.65;;;10.30;90.30;;;;;;5054151;28;20187;-64
2022/03/16 08:52:41;;;;;;;26.08;16.77;;;10.20;89.20;;;;;;5054526;28;20195;-64
2022/03/16 08:55:10;;;;;;;21.08;15.65;;;10.10;88.60;;;;;;5049926;28;20199;-64
2022/03/16 08:57:37;;;;;;;20.95;16.50;;;10.00;89.20;;;;;;5063928;28;20201;-64
2022/03/16 09:00:05;;;;;;;24.25;17.45;;;9.90;90.00;;;;;;5058733;28;20308;-64
2022/03/16 09:02:32;;;;;;;24.80;16.95;;;9.90;90.10;;;;;;5055286;28;20221;-64
2022/03/16 09:04:59;;;;;;;23.85;16.60;;;9.90;90.00;;;;;;5057368;28;20198;-63
2022/03/16 09:07:26;;;;;;;21.20;15.43;;;9.90;88.80;;;;;;5058561;28;20194;-64
2022/03/16 09:09:53;;;;;;;21.00;16.25;;;9.90;87.60;;;;;;5060497;28;20190;-64
2022/03/16 09:12:22;;;;;;;21.33;15.02;;;9.90;86.70;;;;;;5056875;28;20210;-63
2022/03/16 09:14:49;;;;;;;22.70;16.35;;;9.80;87.50;;;;;;5057402;28;20198;-64
2022/03/16 09:17:17;;;;;;;23.33;17.35;;;9.80;87.90;;;;;;5061154;28;20195;-64
2022/03/16 09:19:44;;;;;;;20.67;15.80;;;9.70;87.90;;;;;;5061629;28;20194;-63
2022/03/16 09:22:15;;;;;;;22.58;15.68;;;9.80;87.50;;;;;;5056512;28;20593;-65
2022/03/16 09:24:42;;;;;;;23.77;15.20;;;9.80;87.60;;;;;;5054163;28;20200;-64
2022/03/16 09:27:09;;;;;;;21.42;16.25;;;9.80;87.50;;;;;;5058305;28;20201;-64
2022/03/16 09:29:37;;;;;;;23.98;17.20;;;9.90;87.60;;;;;;5057310;28;20194;-65
2022/03/16 09:32:07;;;;;;;22.58;16.02;;;9.90;87.40;;;;;;5054801;28;20718;-64
2022/03/16 09:34:34;;;;;;;20.40;15.20;;;9.90;86.80;;;;;;5055156;28;20234;-65
2022/03/16 09:37:01;;;;;;;21.00;17.05;;;10.00;85.50;;;;;;5052765;28;20641;-63
2022/03/16 09:39:28;;;;;;;22.52;16.48;;;10.10;85.40;;;;;;5055932;28;20221;-64
2022/03/16 09:41:57;;;;;;;22.02;15.63;;;10.10;85.90;;;;;;5053815;28;20234;-64
2022/03/16 09:44:24;;;;;;;22.85;16.45;;;10.10;84.90;;;;;;5051829;28;20225;-65
2022/03/16 09:46:55;;;;;;;20.13;15.27;;;10.20;84.60;;;;;;5059052;28;20201;-65
2022/03/16 09:49:22;;;;;;;22.48;16.83;;;10.20;84.20;;;;;;5054953;28;20206;-64
2022/03/16 09:51:51;;;;;;;21.27;16.25;;;10.20;84.70;;;;;;5058274;28;20277;-64
2022/03/16 09:54:18;;;;;;;23.20;17.00;;;10.20;84.60;;;;;;5054783;28;20202;-64
2022/03/16 09:56:45;;;;;;;26.52;17.48;;;10.30;84.50;;;;;;5053029;28;20189;-64
2022/03/16 09:59:13;;;;;;;27.63;17.10;;;10.30;83.70;;;;;;5053307;28;20224;-64
2022/03/16 10:01:40;;;;;;;23.27;15.32;;;10.30;83.80;;;;;;5057558;28;20198;-64
2022/03/16 10:04:08;;;;;;;25.00;15.77;;;10.40;84.10;;;;;;5055311;28;20198;-64
2022/03/16 10:06:36;;;;;;;18.75;15.18;;;10.40;83.70;;;;;;5058822;28;20716;-64
2022/03/16 10:15:02;;;;;;;21.52;15.13;;;10.50;84.70;;;;;;5054107;28;20209;-63
2022/03/16 10:17:45;;;;;;;21.20;16.27;;;10.60;84.60;;;;;;5051690;28;20201;-64
2022/03/16 10:20:21;;;;;;;19.83;14.02;;;10.70;84.00;;;;;;5052109;28;20224;-66
2022/03/16 10:23:06;;;;;;;19.25;13.80;;;10.80;83.30;;;;;;5052937;28;20234;-63
2022/03/16 10:25:38;;;;;;;17.90;13.15;;;10.80;82.50;;;;;;5051471;28;20285;-64
2022/03/16 10:28:16;;;;;;;19.77;14.38;;;10.90;82.50;;;;;;5052183;28;20209;-64
2022/03/16 10:30:56;;;;;;;17.45;13.07;;;11.00;81.90;;;;;;5052207;28;20186;-64
2022/03/16 10:33:25;;;;;;;20.00;14.88;;;11.10;81.50;;;;;;5051434;28;20694;-64
2022/03/16 10:36:11;;;;;;;18.00;12.88;;;11.20;81.60;;;;;;5053428;28;20285;-64
2022/03/16 10:38:40;;;;;;;19.20;14.00;;;11.40;83.00;;;;;;5057134;28;20276;-65
2022/03/16 10:46:46;;;;;;;15.00;12.05;;;12.20;76.70;;;;;;5054595;28;20197;-66
2022/03/16 10:49:16;;;;;;;17.17;12.90;;;12.50;74.70;;;;;;5052542;28;20632;-66
2022/03/16 10:51:45;;;;;;;14.00;11.60;;;12.70;73.10;;;;;;5053755;28;20182;-65
2022/03/16 10:54:14;;;;;;;18.92;12.85;;;12.80;73.90;;;;;;5053095;28;20201;-64
2022/03/16 10:56:42;;;;;;;13.82;11.38;;;13.00;71.50;;;;;;5049992;28;20336;-64
2022/03/16 10:59:09;;;;;;;12.85;11.05;;;13.30;73.00;;;;;;5052244;28;20202;-64
2022/03/16 11:01:39;;;;;;;13.13;11.00;;;13.60;69.30;;;;;;5053212;28;20201;-64
2022/03/16 11:04:07;;;;;;;14.02;11.88;;;13.60;67.10;;;;;;5055950;28;20195;-67
2022/03/16 11:06:36;;;;;;;13.18;11.57;;;13.70;66.90;;;;;;5058893;28;20667;-64
2022/03/16 11:09:05;;;;;;;12.57;11.15;;;13.80;65.80;;;;;;5053938;28;20226;-63
2022/03/16 11:14:17;;;;;;;12.68;10.90;;;14.30;66.40;;;;;;5057728;28;20227;-64
2022/03/16 11:16:47;;;;;;;12.40;10.80;;;14.50;65.70;;;;;;5048414;28;20191;-64
2022/03/16 11:19:18;;;;;;;18.02;10.98;;;14.60;65.70;;;;;;5054996;28;20448;-65
2022/03/16 11:22:01;;;;;;;13.35;11.63;;;14.70;65.20;;;;;;5050234;28;20202;-64
2022/03/16 11:24:35;;;;;;;11.60;10.40;;;14.70;63.10;;;;;;5049330;28;20221;-66
2022/03/16 11:27:17;;;;;;;12.77;10.37;;;14.70;65.10;;;;;;5053221;28;20447;-65
2022/03/16 11:29:58;;;;;;;12.53;10.73;;;14.70;64.10;;;;;;5055788;28;20441;-64
2022/03/16 11:32:25;;;;;;;11.90;9.77;;;14.80;64.00;;;;;;5048490;28;20497;-64
2022/03/16 11:34:58;;;;;;;12.60;11.03;;;15.00;64.40;;;;;;5055139;28;20452;-64
2022/03/16 11:37:34;;;;;;;12.87;10.93;;;15.10;63.50;;;;;;5049394;28;20463;-67
2022/03/16 11:40:13;;;;;;;14.70;11.70;;;15.30;63.70;;;;;;5050702;28;20437;-64
2022/03/16 11:42:43;;;;;;;11.20;9.93;;;15.30;61.10;;;;;;5050672;28;21010;-64
2022/03/16 11:45:33;;;;;;;12.40;10.37;;;15.30;60.90;;;;;;5051349;28;20440;-65
2022/03/16 11:48:00;;;;;;;17.30;11.57;;;15.30;60.40;;;;;;5047077;28;20935;-64
2022/03/16 11:50:28;;;;;;;11.43;9.93;;;15.30;61.60;;;;;;5058055;28;21014;-64
2022/03/16 11:53:04;;;;;;;19.30;12.73;;;15.60;60.20;;;;;;5052404;28;20468;-65
2022/03/16 11:55:45;;;;;;;11.90;10.53;;;15.80;58.50;;;;;;5052614;28;20449;-64
2022/03/16 11:58:29;;;;;;;12.43;9.27;;;15.90;58.30;;;;;;5052881;28;20441;-65
2022/03/16 12:01:22;;;;;;;12.60;9.87;;;15.90;57.80;;;;;;5051082;28;20436;-64
2022/03/16 12:03:57;;;;;;;11.70;10.50;;;15.90;58.50;;;;;;5050749;28;20491;-64
2022/03/16 12:06:29;;;;;;;15.73;10.73;;;16.20;59.10;;;;;;5048267;28;20441;-64
2022/03/16 12:08:58;;;;;;;13.00;11.70;;;16.40;58.00;;;;;;5050433;28;20433;-64
2022/03/16 12:14:31;;;;;;;12.50;11.20;;;17.20;56.50;;;;;;5047137;28;20420;-64
2022/03/16 12:17:16;;;;;;;13.30;11.90;;;17.90;54.60;;;;;;5050087;28;20445;-70
2022/03/16 12:19:49;;;;;;;12.10;10.90;;;18.80;54.30;;;;;;5050225;28;20577;-64
2022/03/16 12:22:16;;;;;;;12.27;11.07;;;19.80;53.60;;;;;;5049988;28;20440;-64
2022/03/16 12:30:14;;;;;;;12.63;11.23;;;20.50;47.30;;;;;;5048359;28;20420;-65
2022/03/16 12:32:42;;;;;;;12.33;11.10;;;20.60;46.50;;;;;;5049752;28;20488;-64
2022/03/16 12:35:10;;;;;;;13.27;11.97;;;20.60;44.70;;;;;;5049291;28;20433;-64
2022/03/16 12:37:49;;;;;;;11.23;10.03;;;20.60;46.40;;;;;;5049796;28;20435;-64
2022/03/16 12:40:20;;;;;;;11.17;10.07;;;20.90;44.40;;;;;;5050233;28;20839;-66
2022/03/16 12:42:53;;;;;;;12.13;10.93;;;20.90;43.90;;;;;;5050370;28;20492;-65
2022/03/16 12:45:22;;;;;;;12.47;11.10;;;21.00;43.40;;;;;;5049761;28;20437;-65
2022/03/16 12:47:59;;;;;;;13.47;12.07;;;21.10;42.30;;;;;;5045885;28;20791;-64
2022/03/16 12:50:27;;;;;;;11.63;10.43;;;21.10;44.00;;;;;;5054257;28;20472;-64
2022/03/16 12:52:54;;;;;;;11.97;10.77;;;21.30;43.50;;;;;;5048775;28;20991;-64
2022/03/16 12:55:22;;;;;;;12.07;10.83;;;21.00;42.40;;;;;;5049488;28;20443;-64
2022/03/16 12:57:55;;;;;;;12.87;11.53;;;20.70;42.50;;;;;;5049486;28;20808;-64
2022/03/16 13:00:23;;;;;;;11.57;10.37;;;20.40;43.50;;;;;;5051569;28;20428;-64
2022/03/16 13:02:50;;;;;;;10.23;9.13;;;20.10;43.40;;;;;;5050098;28;20481;-64
2022/03/16 13:05:20;;;;;;;12.30;10.93;;;19.80;43.70;;;;;;5050147;28;20565;-64
2022/03/16 13:07:47;;;;;;;10.73;9.63;;;19.50;44.10;;;;;;5050161;28;20839;-65